Sprint Ussel (19) - D

Date : 11/07/2011

Place Nom Licence Catégorie Club Temps CN à J-60 Points Différence Nouveau CN
1 GERBEAUX Nathanaëlle 18312 D18 6205NO 0:11:38 5022 4473 -549 5284
2 LOTERIE Laurine 7045 D18 5907NO 0:12:06 5166 4301 -865 5401
3 PETER-JAN Lucile 19276 D16 3705CE 0:12:08 4024 4289 +265 4131
4 BODY Mathilde 10184 D16 7305RA 0:12:15 4765 4248 -517 4751
5 DROIN Solène 17925 D14 4201RA 0:12:46 3673 4076 +403 3890
6 HUEBER Nicole 6753 D18 6806AL 0:13:04 5029 3983 -1046 5029
7 DEVRIEUX Naïs 7672 D16 4203RA 0:13:09 4618 3957 -661 5436
8 BOULESTREAU Zélie 11309 D16 2904BR 0:13:18 5819 3913 -1906 6022
9 HUMMEL-AZAIS Margaux 18432 D16 7403RA 0:13:20 4936 3903 -1033 5190
10 LEPERQUE Ophelie 20200 D16 6208NO 0:13:21 4207 3898 -309 4450
11 HANAUER Florence 20408 D14 6806AL 0:13:25 3852 3879 +27 4038
12 CONIEL Lise 14886 D18 5604BR 0:13:29 4731 3860 -871 4970
13 DEFIX Anne-Claire 21435 D18 4203RA 0:13:33 3751 3841 +90 4329
14 BONDIVENNE Perrine 8914 D16 6408AQ 0:13:40 3756 3808 +52 4214
15 DENAIX Lou 7711 D16 7403RA 0:13:41 4798 3803 -995 4798
16 GIRARD Lucille 19689 D16 3705CE 0:13:42 4109 3798 -311 4351
17 BERRARD Anna 19762 D14 2607RA 0:13:55 2648 3739 +1091 3181
18 VUILLEMIN Pauline 17171 D14 2508FC 0:13:59 3251 3722 +471 3561
19 MAISONNEUVE Valentine 16357 D16 4203RA 0:14:02 4406 3708 -698 4358
20 VANOVERBERGHE Camille 21323 D16 6208NO 0:14:07 4717 3686 -1031 4816
21 BASSET Juliette 12398 D14 6911RA 0:14:18 2796 3639 +843 3243
22 VALETTE Marion 10430 D14 6913RA 0:14:26 3085 3605 +520 3267
23 POINSIGNON Elise 9976 D18 5402LO 0:14:26 4836 3605 -1231 4836
24 FONTAINE Helise 22962 D18 5907NO 0:14:53 3874 3496 -378 4216
25 PICAZO Marie 16555 D14 8405PR 0:15:02 3358 3462 +104 4205
26 VUITTON Marie 18842 D14 6911RA 0:15:02 2762 3462 +700 3127
27 DUQUENNE Audrey 23885 D16 5907NO 0:15:03 3176 3458 +282 3508
28 DELENNE Camilla 13800 D14 1307PR 0:15:07 3505 3443 -62 3787
29 JOUNEAU Agathe 14402 D14 3810RA 0:15:14 2474 3416 +942 2993
30 GUILMAIN Melanie 20572 D16 6208NO 0:15:34 3939 3343 -596 4003
31 PELUSO Severine 9506 D16 8405PR 0:15:37 2870 3332 +462 2896
32 FALGA Beatrice 12403 D16 6911RA 0:15:37 2219 3332 +1113 3272
33 ANGLADE Lucile 21188 D14 5604BR 0:15:52 2680 3280 +600 2924
34 TRESSOL Marine 20532 D14 4704AQ 0:16:12 2401 3212 +811 2730
35 VERNOTTE Louise 23552 D16 1905LI 0:16:13 2146 3209 +1063 2354
36 GUSTAFSSON Freia 17865 D14 0615AZ 0:16:15 1860 3202 +1342 2204
37 DEFIX Julia 19894 D14 4203RA 0:16:55 2903 3076 +173 3061
38 RIVOLLIER Isaline 22451 D16 4201RA 0:17:11 3154 3028 -126 3434
39 BRISSARD Virginie 22893 D18 1705PC 0:17:13 3360 3023 -337 3562
40 BIHEL Julia 14738 D18 4203RA 0:17:17 4158 3011 -1147 4158
41 CONIEL Laura 14887 D14 5604BR 0:17:29 2659 2977 +318 2864
42 ELIAS Pauline 16137 D14 1307PR 0:17:40 3465 2946 -519 3667
43 DOUSSET Mathilde 20731 D14 4709AQ 0:18:34 2354 2803 +449 2662
44 GIRARD Clarisse 22476 D14 2508FC 0:18:37 2338 2795 +457 2614
45 SENDRON Kathleen 22159 D14 0207PI 0:18:46 2104 2773 +669 2073
46 BASSET Fiona 23384 D16 6911RA 0:18:50 2419 2763 +344 3065
47 FOL Loreline 16393 D14 3105MP 0:19:05 3219 2727 -492 3239
48 DUMAS Floriane 23550 D16 1905LI 0:19:11 0 2713 1683
49 VERNOTTE Justine 23633 D16 1905LI 0:19:20 2214 2692 +478 2731
50 BERCHE Léa 24420 D16 5907NO 0:19:20 2159 2692 +533 2459
51 JEANNERET Julie 20160 D14 7109BO 0:19:38 1889 2651 +762 2032
52 LEVESY Salomé 23127 D14 3810RA 0:19:39 1549 2648 +1099 1675
53 BASSET Noëllie 24039 D14 6911RA 0:20:08 2585 644
54 FIGUIERE Lucile 10087 D14 7109BO 0:20:12 1977 2576 +599 1977
55 BESTEL Sandra 10758 D16 9105IF 0:20:33 3032 2532 -500 3078
56 SEMBACH Lauriane 19221 D16 6806AL 0:20:36 2873 2526 -347 2692
57 BIHEL Jeanne 23728 D14 4203RA 0:20:49 2098 2500 +402 2636
58 NOY-GSELL Arielle 11305 D16 7807IF 0:22:13 2564 2342 -222 2564
59 DIDIER Marion 19566 D14 7305RA 0:22:24 744 2323 +1579 1176
60 BULLIER Alisson 23427 D16 0207PI 0:22:37 2613 2301 -312 2682
61 VANOVERBERGHE Mathilde 22238 D14 6208NO 0:23:00 1491 2263 +772 1938
62 DASILVA Auriane 12758 D14 7707IF 0:23:18 1568 2233 +665 1892
63 STUCKELBERGER Mathilde 15961 D18 1307PR 0:23:27 0 2219 1446
64 VERDIN Alix 15276 D16 7109BO 0:23:41 3679 2197 -1482 3736
65 BERJOAN Julia 15676 D14 3408LR 0:24:03 2203 2164 -39 2249
66 PARRAIN Diane 24965 D14 6307AU 0:24:23 2134 0
67 CORBIN Emma 20916 D14 2604RA 0:26:28 1830 1966 +136 1933
68 CORBIN Cécile 23503 D35 2604RA 0:26:36 0 1956 0
69 CHAMBRES Fjola 23546 D14 6307AU 0:28:13 1829 1844 +15 1836
70 SERPE Milena 24816 D14 0207PI 0:30:25 786 1711 +925 1118
71 AVIRON M-Therese 17397 D55 3705CE 0:34:17 1904 1518 -386 1904
72 PERISSAT Fanette 23192 D18 7808IF 0:34:18 1069 1517 +448 1193
73 ESCAUT Lorraine 18205 D14 3105MP 0:41:31 2215 1253 -962 2215